MMPG

Details ICAO MMPG (PDS)
Name PIEDRAS NEGRAS INTL
Region Mexico
Timezone America/Matamoros (UTC-6.0)
Plans Departing 0
Arriving 8
Stats Elevation 901 ft / 275 m (AMSL)
Location 28.627393° -100.535210°
Runways 1
Magnetic Variation 5.295° E
Sunrise 2017-12-16 13:29:31 UTC / 2017-12-16 07:29:31 Local
Sunset 2017-12-16 23:49:04 UTC / 2017-12-16 17:49:04 Local
Advertisement - Login to hide

Runways

ID Width Length Bearing (true) Bearing (mag) Surface Threshold Offset Overrun Length
12 98 ft / 30 m 6,656 ft / 2,029 m 126.92° 121.62° Asphalt 295 ft / 90 m 0 ft / 0 m
30 98 ft / 30 m 6,656 ft / 2,029 m 306.93° 301.63° Asphalt 0 ft / 0 m 0 ft / 0 m

Map

Weather


0- 5 10 15 20 25 30 35+ Temperature / ° C

Clouds and Precipitation
Forecast for 2017-12-17 06:00 UTC. Updated an hour ago

Ground ~20,000 ft ~40,000 ft Winds

METAR

Not found

TAF

TAF AMD MMPG 162208Z 1622/1718 12010KT P6SM OVC015 TEMPO 1623/1703 4SM RA FM170300 00000KT 3SM DZ BR OVC005 TEMPO 1712/1716 1SM DZ BR OVC003

Frequencies

Tower 122.25 MHz INFO
Warning: Do not use this data for real-world aviation or navigation. No guarantee of current accuracy is given.